createdAt,value
2022-09-07T04:04:09.486Z,3.05
2022-09-07T04:08:25.367Z,3.53
2022-09-07T04:12:36.918Z,2.88
2022-09-07T04:16:48.849Z,2.67
2022-09-07T04:21:00.462Z,3.03
2022-09-07T04:25:11.988Z,3.58
2022-09-07T04:29:23.926Z,2.95
2022-09-07T04:33:35.665Z,2.60
2022-09-07T04:37:47.195Z,2.40
2022-09-07T04:41:58.691Z,2.05
2022-09-07T04:46:22.994Z,2.63
2022-09-07T04:50:34.545Z,2.33
2022-09-07T04:54:50.148Z,2.50
2022-09-07T04:59:02.786Z,2.70
2022-09-07T05:03:14.343Z,2.90
2022-09-07T05:07:26.234Z,2.42
2022-09-07T05:11:37.864Z,2.17
2022-09-07T05:15:49.411Z,2.22
2022-09-07T05:20:00.932Z,2.00
2022-09-07T05:24:12.518Z,2.45
2022-09-07T05:28:24.067Z,2.20
2022-09-07T05:32:35.574Z,2.03
2022-09-07T05:36:47.136Z,2.30
2022-09-07T05:40:59.333Z,2.10
2022-09-07T05:45:11.337Z,2.30
2022-09-07T05:49:22.852Z,2.88
2022-09-07T05:53:35.797Z,2.22
2022-09-07T05:57:47.358Z,2.55
2022-09-07T06:01:59.145Z,2.47
2022-09-07T06:06:16.628Z,2.53
2022-09-07T06:10:46.352Z,2.45
2022-09-07T06:14:57.907Z,2.40
2022-09-07T06:19:09.441Z,2.78
2022-09-07T06:23:20.993Z,3.00
2022-09-07T06:27:32.586Z,2.60
2022-09-07T06:36:19.748Z,2.95
2022-09-07T06:40:33.173Z,3.05
2022-09-07T06:44:44.711Z,2.90
2022-09-07T06:48:56.556Z,2.38
2022-09-07T06:57:39.617Z,2.53
2022-09-07T07:01:51.160Z,2.72
2022-09-07T07:06:03.162Z,2.80
2022-09-07T07:10:14.737Z,3.00
2022-09-07T07:14:26.865Z,2.65
2022-09-07T07:18:39.940Z,2.60
2022-09-07T07:22:52.227Z,2.47
2022-09-07T07:27:03.852Z,2.63
2022-09-07T07:31:17.151Z,2.28
2022-09-07T07:35:28.831Z,2.35
2022-09-07T07:44:13.297Z,2.28
2022-09-07T07:48:25.438Z,2.28
2022-09-07T07:57:11.850Z,2.10
2022-09-07T08:01:23.391Z,2.30
2022-09-07T08:05:38.218Z,2.38
2022-09-07T08:09:49.802Z,2.50
2022-09-07T08:14:02.702Z,2.35
2022-09-07T08:18:16.962Z,2.20
2022-09-07T08:22:31.774Z,2.85
2022-09-07T08:26:47.196Z,2.60
2022-09-07T08:30:58.880Z,2.55
2022-09-07T08:35:10.412Z,2.70
2022-09-07T08:39:21.971Z,2.22
2022-09-07T08:43:49.931Z,2.20
2022-09-07T08:48:04.755Z,2.38
2022-09-07T08:52:25.133Z,2.55
2022-09-07T08:57:20.612Z,2.95
2022-09-07T09:01:31.753Z,2.60
2022-09-07T09:06:11.822Z,3.00
2022-09-07T09:10:55.328Z,4.05
2022-09-07T09:15:21.405Z,3.30
2022-09-07T09:19:49.321Z,3.30
2022-09-07T09:24:19.190Z,3.78
2022-09-07T09:28:32.457Z,3.40
2022-09-07T09:32:46.069Z,3.17
2022-09-07T09:36:57.621Z,3.00
2022-09-07T09:41:12.393Z,3.28
2022-09-07T09:45:28.352Z,3.08
2022-09-07T09:49:41.240Z,3.38
2022-09-07T09:54:27.097Z,3.05
2022-09-07T10:07:53.338Z,3.30
2022-09-07T10:12:07.771Z,3.10
2022-09-07T10:16:19.880Z,2.90
2022-09-07T10:20:35.584Z,2.75
2022-09-07T10:24:47.155Z,2.60
2022-09-07T10:29:17.190Z,2.67
2022-09-07T10:38:25.032Z,2.63
2022-09-07T10:43:20.816Z,2.83
2022-09-07T10:47:36.475Z,2.67
2022-09-07T10:52:04.177Z,2.42
2022-09-07T10:56:30.214Z,2.70
2022-09-07T11:01:06.661Z,2.17
2022-09-07T11:05:36.093Z,2.20
2022-09-07T11:09:55.642Z,2.40
2022-09-07T11:14:14.643Z,2.08
2022-09-07T11:18:35.192Z,2.20
2022-09-07T11:22:51.988Z,1.90
2022-09-07T11:27:11.889Z,1.92
2022-09-07T11:31:30.588Z,1.67
2022-09-07T11:35:45.273Z,1.70
2022-09-07T11:40:04.012Z,1.77
2022-09-07T11:44:26.024Z,1.90
2022-09-07T11:48:48.981Z,1.58
2022-09-07T11:53:06.370Z,1.85
2022-09-07T11:57:28.945Z,1.88
2022-09-07T12:01:54.762Z,2.25
2022-09-07T12:06:46.973Z,1.80
2022-09-07T12:11:14.933Z,1.55
2022-09-07T12:15:29.295Z,1.70
2022-09-07T12:19:40.974Z,1.75
2022-09-07T12:23:55.210Z,1.30
2022-09-07T12:28:19.841Z,1.50
2022-09-07T12:32:57.040Z,1.60
2022-09-07T12:37:12.442Z,1.90
2022-09-07T12:41:39.573Z,1.70
2022-09-07T12:45:52.425Z,2.00
2022-09-07T12:50:30.777Z,1.73
2022-09-07T12:55:09.955Z,1.70
2022-09-07T12:59:31.604Z,1.80
2022-09-07T13:04:12.653Z,1.50
2022-09-07T13:08:57.844Z,1.52
2022-09-07T13:14:02.748Z,1.65
2022-09-07T13:17:56.347Z,2.08
2022-09-07T13:22:30.416Z,1.75
2022-09-07T13:27:02.041Z,1.80
2022-09-07T13:31:42.022Z,1.40
2022-09-07T13:36:25.601Z,1.30
2022-09-07T13:40:40.094Z,1.40
2022-09-07T13:44:55.472Z,1.60
2022-09-07T13:49:14.806Z,1.30
2022-09-07T13:53:30.940Z,1.17
2022-09-07T13:57:58.119Z,1.20
2022-09-07T14:02:27.114Z,1.10
2022-09-07T14:06:38.973Z,1.27
2022-09-07T14:10:50.447Z,1.30
2022-09-07T14:15:35.505Z,1.30
2022-09-07T14:19:51.628Z,1.50
2022-09-07T14:24:17.737Z,1.48
2022-09-07T14:28:31.622Z,1.40
2022-09-07T14:32:44.154Z,1.48
2022-09-07T14:37:01.402Z,1.30
2022-09-07T14:41:17.441Z,1.20
2022-09-07T14:45:28.908Z,1.20
2022-09-07T14:49:40.522Z,1.17
2022-09-07T14:53:54.980Z,0.95
2022-09-07T14:58:15.340Z,0.90
2022-09-07T15:02:34.617Z,1.00
2022-09-07T15:07:02.142Z,1.00
2022-09-07T15:11:36.923Z,1.17
2022-09-07T15:15:57.017Z,1.00
2022-09-07T15:20:31.724Z,1.10
2022-09-07T15:24:47.086Z,1.00
2022-09-07T15:29:13.944Z,1.05
2022-09-07T15:33:25.458Z,0.93
2022-09-07T15:46:41.065Z,0.98
2022-09-07T15:51:01.550Z,1.08
2022-09-07T15:55:13.537Z,1.20
2022-09-07T15:59:25.054Z,1.10
2022-09-07T16:03:36.727Z,1.25
2022-09-07T16:21:26.289Z,1.35
2022-09-07T16:25:38.346Z,1.30
2022-09-07T16:29:50.875Z,1.38
2022-09-07T16:34:03.397Z,1.40
2022-09-07T16:42:47.186Z,1.42
2022-09-07T16:46:59.789Z,1.23
2022-09-07T16:51:13.258Z,1.20
2022-09-07T16:55:24.757Z,1.00
2022-09-07T16:59:36.230Z,1.30
2022-09-07T17:03:49.430Z,1.20
2022-09-07T17:08:01.136Z,1.10
2022-09-07T17:12:12.686Z,1.20
2022-09-07T17:16:29.650Z,1.30
2022-09-07T17:20:42.716Z,0.98
2022-09-07T17:24:54.554Z,1.25
2022-09-07T17:29:07.262Z,1.30
2022-09-07T17:33:18.800Z,1.20
2022-09-07T17:37:30.453Z,1.20
2022-09-07T17:41:42.083Z,1.10
2022-09-07T17:45:53.618Z,1.30
2022-09-07T17:50:05.620Z,1.20
2022-09-07T17:54:18.251Z,1.40
2022-09-07T17:58:29.718Z,1.30
2022-09-07T18:02:41.211Z,1.20
2022-09-07T18:06:54.063Z,1.23
2022-09-07T18:15:41.973Z,1.30
2022-09-07T18:19:53.451Z,1.50
2022-09-07T18:24:17.882Z,1.35
2022-09-07T18:33:00.857Z,1.20
2022-09-07T18:37:12.552Z,1.30
2022-09-07T18:41:24.868Z,1.27
2022-09-07T18:45:36.597Z,1.15
2022-09-07T18:49:48.636Z,1.10
2022-09-07T18:54:00.171Z,1.17
2022-09-07T18:58:11.643Z,1.25
2022-09-07T19:02:23.208Z,1.20
2022-09-07T19:06:34.758Z,1.38
2022-09-07T19:10:46.440Z,1.17
2022-09-07T19:14:57.920Z,1.42
2022-09-07T19:19:11.830Z,1.13
2022-09-07T19:23:23.524Z,1.40
2022-09-07T19:27:35.132Z,1.20
2022-09-07T19:32:03.924Z,1.25
2022-09-07T19:36:15.421Z,1.50
2022-09-07T19:40:26.979Z,1.10
2022-09-07T19:44:38.569Z,1.10
2022-09-07T19:48:50.104Z,1.13
2022-09-07T19:53:01.701Z,1.10
2022-09-07T19:57:13.671Z,1.50
2022-09-07T20:01:25.948Z,1.27
2022-09-07T20:05:39.849Z,1.30
2022-09-07T20:09:53.082Z,1.20
2022-09-07T20:14:04.717Z,1.30
2022-09-07T20:18:16.347Z,2.38
2022-09-07T20:22:28.865Z,1.25
2022-09-07T20:26:43.221Z,1.40
2022-09-07T20:30:55.619Z,1.50
2022-09-07T20:35:09.314Z,1.25
2022-09-07T20:39:21.595Z,1.70
2022-09-07T20:43:33.692Z,1.35
2022-09-07T20:47:45.231Z,1.55
2022-09-07T20:51:59.845Z,1.60
2022-09-07T20:56:23.133Z,1.80
2022-09-07T21:00:37.866Z,1.40
2022-09-07T21:04:49.401Z,1.30
2022-09-07T21:09:01.502Z,1.60
2022-09-07T21:13:14.226Z,1.30
2022-09-07T21:17:25.709Z,1.48
2022-09-07T21:21:39.938Z,1.33
2022-09-07T21:25:51.637Z,1.40
